Weather reports worldwide

Advertisment
Tibenham Airfield, United Kingdom (3931): temperature & dewpoint: 16.07.2019 20:00:00 - 22.07.2019 20:00:00 (BST)Tibenham Airfield, United Kingdom (3931): temperature -20cm & temperature -100cm: 16.07.2019 20:00:00 - 22.07.2019 20:00:00 (BST)Tibenham Airfield, United Kingdom (3931): wind speed & gusts: 16.07.2019 20:00:00 - 22.07.2019 20:00:00 (BST)Tibenham Airfield, United Kingdom (3931): wind direction: 16.07.2019 20:00:00 - 22.07.2019 20:00:00 (BST)Tibenham Airfield, United Kingdom (3931): reduced air pressure: 16.07.2019 20:00:00 - 22.07.2019 20:00:00 (BST)Tibenham Airfield, United Kingdom (3931): sunshine duration: 16.07.2019 20:00:00 - 22.07.2019 20:00:00 (BST)Tibenham Airfield, United Kingdom (3931): precipitation: 16.07.2019 20:00:00 - 22.07.2019 20:00:00 (BST)
Date & Time tt [°C] td [°C] tt -20cm [°C] tt -100cm [°C] ff [km/h] ff [kn] fx [km/h] fx [kn] dd ppp [hPa] sd [min] rr [mm]
22.07.2019 20:00:00 25,9 17,6 - - 15 8 - - WNW 1019,5 60 0,0
22.07.2019 19:00:00 27,5 17,5 - - 21 11 - - W 1019,1 60 0,0
22.07.2019 18:00:00 28,3 18,0 - - 24 13 - - WSW 1019,0 60 0,0
22.07.2019 17:00:00 28,8 18,0 - - 26 14 - - W 1019,1 60 0,0
22.07.2019 16:00:00 29,0 17,5 - - 26 14 - - WSW 1019,2 60 0,0
22.07.2019 15:00:00 28,5 17,3 - - 28 15 - - WSW 1019,4 60 0,0
22.07.2019 14:00:00 28,0 17,7 - - 28 15 - - WSW 1019,6 60 0,0
22.07.2019 13:00:00 26,8 17,3 - - 26 14 - - WSW 1019,9 60 0,0
22.07.2019 12:00:00 26,2 17,6 - - 29 16 - - WSW 1020,0 60 0,0
22.07.2019 11:00:00 24,6 17,2 - - 31 17 50 27 WSW 1020,0 60 0,0
22.07.2019 10:00:00 22,9 16,9 18,2 16,7 34 18 50 27 WSW 1020,0 42 0,0
22.07.2019 09:00:00 20,7 16,5 - - 29 16 - - WSW 1020,1 12 0,0
22.07.2019 08:00:00 18,4 15,6 - - 22 12 - - SW 1019,7 6 0,0
22.07.2019 07:00:00 16,8 14,6 - - 21 11 - - SW 1019,6 0 0,0
22.07.2019 06:00:00 15,7 14,0 - - 15 8 - - SSW 1019,2 0 0,0
22.07.2019 05:00:00 14,9 13,4 - - 15 8 - - SSW 1019,2 0 0,0
22.07.2019 04:00:00 15,1 12,9 - - 16 9 - - SSW 1019,5 0 0,0
22.07.2019 03:00:00 15,6 12,6 - - 15 8 - - SSW 1019,7 0 0,0
22.07.2019 02:00:00 16,3 12,7 - - 15 8 - - SSW 1019,6 0 0,0
22.07.2019 01:00:00 17,1 13,1 - - 11 6 - - S 1020,0 - 0,0
22.07.2019 00:00:00 17,9 13,2 - - 13 7 - - S 1020,0 0 0,0
21.07.2019 23:00:00 18,4 13,3 - - 11 6 - - S 1020,4 0 0,0
21.07.2019 22:00:00 18,9 13,4 - - 9 5 - - S 1020,3 0 0,0
21.07.2019 21:00:00 19,7 13,1 - - 8 4 - - SSW 1020,0 0 0,0
21.07.2019 20:00:00 21,2 12,5 - - 15 8 - - SSW 1019,6 0 0,0
21.07.2019 19:00:00 21,9 11,8 - - 18 10 - - WSW 1019,6 12 0,0
21.07.2019 18:00:00 22,1 11,7 - - 16 9 - - SW 1019,5 0 0,0
21.07.2019 17:00:00 22,1 11,7 - - 21 11 - - SW 1019,8 18 0,0
21.07.2019 16:00:00 22,2 11,2 - - 22 12 - - WSW 1019,9 12 0,0
21.07.2019 15:00:00 23,4 11,9 - - 18 10 - - SW 1020,0 18 0,0
21.07.2019 14:00:00 22,5 11,7 - - 15 8 - - SW 1020,0 12 0,0
21.07.2019 13:00:00 21,3 10,4 - - 16 9 - - SW 1020,2 30 0,0
21.07.2019 12:00:00 21,0 10,2 - - 18 10 - - WSW 1019,8 54 0,0
21.07.2019 11:00:00 20,4 12,3 - - 16 9 - - WSW 1019,7 60 0,0
21.07.2019 10:00:00 18,3 12,6 18,0 16,5 16 9 - - WSW 1019,4 42 0,0
21.07.2019 09:00:00 17,3 13,2 - - 15 8 - - WSW 1018,9 30 0,0
21.07.2019 08:00:00 15,8 13,1 - - 13 7 - - WSW 1018,6 24 0,0
21.07.2019 07:00:00 13,4 11,9 - - 13 7 - - WSW 1018,1 24 0,0
21.07.2019 06:00:00 12,6 11,6 - - 13 7 - - WSW 1017,2 6 0,0
21.07.2019 05:00:00 11,8 10,7 - - 9 5 - - SW 1016,5 0 0,0
21.07.2019 04:00:00 12,4 10,9 - - 9 5 - - W 1016,1 0 0,0
21.07.2019 03:00:00 12,1 10,1 - - 9 5 - - W 1015,5 0 0,0
21.07.2019 02:00:00 13,2 10,6 - - 13 7 - - W 1015,1 0 0,0
21.07.2019 01:00:00 13,4 11,7 - - 9 5 - - WSW 1014,5 - 0,0
21.07.2019 00:00:00 14,9 12,5 - - 9 5 - - W 1014,1 0 0,0
20.07.2019 23:00:00 16,4 14,4 - - 13 7 - - W 1013,0 0 0,0
20.07.2019 22:00:00 16,3 14,9 - - 13 7 - - W 1012,4 0 0,0
20.07.2019 21:00:00 17,9 15,7 - - 13 7 - - WSW 1011,1 0 0,0
20.07.2019 20:00:00 17,8 15,8 - - 13 7 - - W 1010,1 0 0,0
20.07.2019 19:00:00 19,0 13,8 - - 13 7 - - NW 1009,2 0 0,0
20.07.2019 18:00:00 22,1 12,9 - - 29 16 - - WSW 1007,9 18 0,0
20.07.2019 17:00:00 23,4 12,6 - - 37 20 48 26 WSW 1007,1 48 0,0
20.07.2019 16:00:00 23,6 13,9 - - 34 18 - - W 1006,5 18 0,0
20.07.2019 15:00:00 23,4 17,3 - - 21 11 - - SSW 1005,9 24 0,2
20.07.2019 14:00:00 22,2 15,2 - - 22 12 - - WSW 1005,5 18 0,0
20.07.2019 13:00:00 22,7 15,4 - - 31 17 46 25 SW 1005,0 48 0,0
20.07.2019 12:00:00 21,2 16,5 - - 26 14 - - SW 1005,0 18 0,0
20.07.2019 11:00:00 18,9 17,1 - - 18 10 - - SSW 1005,1 0 0,0
20.07.2019 10:00:00 18,8 16,7 18,0 16,5 18 10 - - SSW 1005,0 0 0,0
20.07.2019 09:00:00 17,8 16,2 - - 18 10 - - SSW 1005,3 6 0,0
20.07.2019 08:00:00 16,7 15,7 - - 18 10 - - SSW 1005,4 6 0,0
20.07.2019 07:00:00 16,1 15,8 - - 13 7 - - S 1005,2 0 0,0
20.07.2019 06:00:00 15,4 15,0 - - 9 5 - - S 1005,3 0 0,2
20.07.2019 05:00:00 15,4 14,9 - - 13 7 - - S 1005,8 0 0,4
20.07.2019 04:00:00 15,6 15,1 - - 15 8 - - S 1006,0 0 1,0
20.07.2019 03:00:00 16,1 15,4 - - 15 8 - - S 1006,5 0 4,4
20.07.2019 02:00:00 17,2 16,8 - - 13 7 - - S 1007,0 0 1,6
20.07.2019 01:00:00 17,3 16,9 - - 13 7 - - S 1007,3 - 0,0
20.07.2019 00:00:00 17,3 16,8 - - 13 7 - - S 1007,5 0 0,4
19.07.2019 23:00:00 17,3 16,9 - - 15 8 - - S 1008,0 0 0,4
19.07.2019 22:00:00 17,1 16,7 - - 11 6 - - S 1008,3 0 1,4
19.07.2019 21:00:00 17,0 16,4 - - 11 6 - - S 1008,6 0 1,0
19.07.2019 20:00:00 17,2 16,3 - - 15 8 - - S 1008,6 0 1,2
19.07.2019 19:00:00 18,4 15,7 - - 21 11 - - SSW 1008,9 0 0,0
19.07.2019 18:00:00 18,0 15,3 - - 16 9 - - S 1009,3 0 0,0
19.07.2019 17:00:00 18,2 14,2 - - 18 10 - - SSW 1009,8 0 0,0
19.07.2019 16:00:00 18,9 14,0 - - 22 12 - - S 1010,0 0 0,0
19.07.2019 15:00:00 18,4 15,0 - - 13 7 - - S 1010,4 0 0,0
19.07.2019 14:00:00 18,9 13,2 - - 18 10 - - SSW 1010,9 6 0,0
19.07.2019 13:00:00 18,9 12,0 - - 21 11 - - S 1010,7 0 0,0
19.07.2019 12:00:00 19,1 11,5 - - 18 10 - - SSW 1011,2 12 0,0
19.07.2019 11:00:00 19,0 11,5 - - 15 8 - - SW 1011,4 18 0,0
19.07.2019 10:00:00 17,6 12,2 18,0 16,5 13 7 - - SSW 1011,7 18 0,0
19.07.2019 09:00:00 16,6 11,9 - - 11 6 - - SSW 1011,8 30 0,0
19.07.2019 08:00:00 15,0 11,9 - - 8 4 - - SW 1012,1 24 0,0
19.07.2019 07:00:00 13,5 11,3 - - 5 3 - - SSW 1011,8 18 0,0
19.07.2019 06:00:00 11,6 11,0 - - 8 4 - - SSW 1011,7 0 0,0
19.07.2019 05:00:00 9,1 7,7 - - 4 2 - - WSW 1011,5 0 0,0
19.07.2019 04:00:00 10,9 9,0 - - 5 3 - - WSW 1011,8 0 0,0
19.07.2019 03:00:00 11,7 9,4 - - 8 4 - - WSW 1011,7 0 0,0
19.07.2019 02:00:00 11,9 9,3 - - 8 4 - - WSW 1011,7 0 0,0
19.07.2019 01:00:00 13,3 9,4 - - 11 6 - - WSW 1011,5 - 0,0
19.07.2019 00:00:00 15,2 10,5 - - 9 5 - - SW 1011,2 0 0,0
18.07.2019 23:00:00 13,4 9,9 - - 8 4 - - SW 1010,9 0 0,0
18.07.2019 22:00:00 16,4 11,4 - - 4 2 - - SW 1010,8 0 0,0
18.07.2019 21:00:00 18,0 11,1 - - 5 3 - - WSW 1010,2 0 0,0
18.07.2019 20:00:00 19,7 10,7 - - 11 6 - - W 1009,7 0 0,0
18.07.2019 19:00:00 20,4 10,8 - - 13 7 - - WNW 1009,4 12 0,0
18.07.2019 18:00:00 21,0 11,9 - - 15 8 - - W 1009,0 12 0,0
18.07.2019 17:00:00 20,6 13,8 - - 13 7 - - NW 1008,9 18 0,0
18.07.2019 16:00:00 20,3 13,8 - - 11 6 - - NW 1008,6 6 0,0
18.07.2019 15:00:00 19,0 15,2 - - 18 10 - - NW 1008,6 0 0,0
18.07.2019 14:00:00 19,7 16,2 - - 15 8 - - WSW 1008,3 0 0,0
18.07.2019 13:00:00 18,8 16,7 - - 13 7 - - WSW 1008,3 0 0,0
18.07.2019 12:00:00 17,9 16,7 - - 16 9 - - WSW 1008,5 0 0,2
18.07.2019 11:00:00 16,9 16,4 - - 13 7 - - SW 1008,3 0 0,6
18.07.2019 10:00:00 16,4 15,6 18,4 16,4 15 8 - - SW 1008,4 0 0,2
18.07.2019 09:00:00 17,5 14,8 - - 18 10 - - SW 1008,3 6 0,0
18.07.2019 08:00:00 17,3 14,1 - - 13 7 - - SW 1008,3 0 0,0
18.07.2019 07:00:00 16,1 13,5 - - 11 6 - - SSW 1008,3 0 0,0
18.07.2019 06:00:00 15,5 13,3 - - 9 5 - - SSW 1008,5 0 0,0
18.07.2019 05:00:00 15,6 13,6 - - 11 6 - - SW 1008,9 0 0,0
18.07.2019 04:00:00 16,0 14,1 - - 9 5 - - SSW 1009,0 0 0,0
18.07.2019 03:00:00 16,2 14,0 - - 5 3 - - SW 1009,2 0 0,2
18.07.2019 02:00:00 16,7 13,3 - - 11 6 - - SW 1009,9 0 0,0
18.07.2019 01:00:00 17,2 13,6 - - 9 5 - - S 1010,1 - 0,0
18.07.2019 00:00:00 17,1 14,0 - - 9 5 - - S 1010,3 0 0,0
17.07.2019 23:00:00 17,2 14,4 - - 9 5 - - S 1010,3 0 0,0
17.07.2019 22:00:00 17,5 13,8 - - 11 6 - - SSE 1010,5 0 0,0
17.07.2019 21:00:00 18,7 13,1 - - 9 5 - - SSE 1010,5 0 0,0
17.07.2019 20:00:00 20,9 13,0 - - 16 9 - - S 1010,5 24 0,0
17.07.2019 19:00:00 21,6 12,5 - - 15 8 - - S 1011,1 0 0,0
17.07.2019 18:00:00 22,0 12,6 - - 15 8 - - S 1011,3 0 0,0
17.07.2019 17:00:00 22,7 12,7 - - 21 11 - - S 1011,7 0 0,0
17.07.2019 16:00:00 23,7 12,4 - - 18 10 - - S 1011,9 0 0,0
17.07.2019 15:00:00 24,2 11,5 - - 21 11 - - S 1012,2 6 0,0
17.07.2019 14:00:00 25,6 12,4 - - 15 8 - - S 1012,4 48 0,0
17.07.2019 13:00:00 24,4 10,8 - - 15 8 - - SW 1013,0 24 0,0
17.07.2019 12:00:00 24,0 13,4 - - 13 7 - - SW 1013,6 54 0,0
17.07.2019 11:00:00 23,1 14,1 - - 15 8 - - WSW 1014,0 60 0,0
17.07.2019 10:00:00 22,0 14,8 18,0 16,4 13 7 - - SW 1014,3 48 0,0
17.07.2019 09:00:00 19,7 14,0 - - 11 6 - - SW 1014,7 48 0,0
17.07.2019 08:00:00 18,5 14,8 - - 9 5 - - WSW 1014,6 48 0,0
17.07.2019 07:00:00 15,4 13,2 - - 9 5 - - SSW 1014,6 0 0,0
17.07.2019 06:00:00 15,3 13,1 - - 9 5 - - SSW 1014,9 0 0,0
17.07.2019 05:00:00 15,7 13,2 - - 9 5 - - SW 1015,1 0 0,0
17.07.2019 04:00:00 16,7 13,6 - - 11 6 - - S 1015,1 0 0,0
17.07.2019 03:00:00 17,2 14,0 - - 15 8 - - S 1015,5 0 0,0
17.07.2019 02:00:00 17,4 14,3 - - 9 5 - - S 1016,2 0 0,0
17.07.2019 01:00:00 16,1 13,2 - - 8 4 - - SSE 1016,7 - 0,0
17.07.2019 00:00:00 15,2 11,9 - - 9 5 - - SE 1016,9 0 0,0
16.07.2019 23:00:00 16,4 12,1 - - 8 4 - - SSE 1017,2 0 0,0
16.07.2019 22:00:00 17,9 13,3 - - 4 2 - - ESE 1017,4 0 0,0
16.07.2019 21:00:00 18,9 12,9 - - 5 3 - - SSE 1017,1 0 0,0
16.07.2019 20:00:00 19,9 13,0 - - 11 6 - - SSE 1016,8 0 0,0

tt = temperature
td = dewpoint
tt -20cm = temperature -20cm
tt -100cm = temperature -100cm
ff = wind speed
fx = gusts
dd = wind direction
ppp = reduced air pressure
sd = sunshine duration
rr = precipitation

Next stations